sensor_id;sensor_type;location;lat;lon;timestamp;pressure;altitude;pressure_sealevel;temperature;humidity
4705;BME280;2366;51.332;6.610;2023-01-27T00:00:23;102157.34;;;7.59;65.20
4705;BME280;2366;51.332;6.610;2023-01-27T00:02:49;102164.16;;;7.68;64.84
4705;BME280;2366;51.332;6.610;2023-01-27T00:05:15;102158.88;;;7.68;64.74
4705;BME280;2366;51.332;6.610;2023-01-27T00:07:41;102156.16;;;7.70;64.49
4705;BME280;2366;51.332;6.610;2023-01-27T00:10:14;102162.38;;;7.69;64.45
4705;BME280;2366;51.332;6.610;2023-01-27T00:12:41;102163.22;;;7.69;63.97
4705;BME280;2366;51.332;6.610;2023-01-27T00:15:25;102156.09;;;7.73;64.20
4705;BME280;2366;51.332;6.610;2023-01-27T00:17:50;102162.81;;;7.85;63.60
4705;BME280;2366;51.332;6.610;2023-01-27T00:20:16;102164.72;;;7.79;63.29
4705;BME280;2366;51.332;6.610;2023-01-27T00:23:00;102162.78;;;7.86;62.90
4705;BME280;2366;51.332;6.610;2023-01-27T00:25:43;102163.31;;;7.99;62.43
4705;BME280;2366;51.332;6.610;2023-01-27T00:28:17;102161.50;;;8.01;61.77
4705;BME280;2366;51.332;6.610;2023-01-27T00:30:48;102169.56;;;7.96;62.08
4705;BME280;2366;51.332;6.610;2023-01-27T00:33:14;102177.53;;;7.93;61.35
4705;BME280;2366;51.332;6.610;2023-01-27T00:36:10;102171.22;;;8.00;62.06
4705;BME280;2366;51.332;6.610;2023-01-27T00:38:35;102167.91;;;7.92;62.32
4705;BME280;2366;51.332;6.610;2023-01-27T00:41:05;102163.47;;;7.93;62.72
4705;BME280;2366;51.332;6.610;2023-01-27T00:43:50;102171.16;;;8.02;62.60
4705;BME280;2366;51.332;6.610;2023-01-27T00:46:18;102170.16;;;8.06;62.41
4705;BME280;2366;51.332;6.610;2023-01-27T00:48:43;102171.22;;;8.00;63.03
4705;BME280;2366;51.332;6.610;2023-01-27T00:51:10;102174.84;;;7.96;62.77
4705;BME280;2366;51.332;6.610;2023-01-27T00:53:36;102166.00;;;7.97;63.55
4705;BME280;2366;51.332;6.610;2023-01-27T00:56:02;102175.88;;;7.91;63.50
4705;BME280;2366;51.332;6.610;2023-01-27T00:58:28;102169.75;;;7.89;64.14
4705;BME280;2366;51.332;6.610;2023-01-27T01:00:58;102173.19;;;7.92;64.25
4705;BME280;2366;51.332;6.610;2023-01-27T01:03:24;102167.88;;;7.94;63.90
4705;BME280;2366;51.332;6.610;2023-01-27T01:05:50;102168.88;;;7.90;63.72
4705;BME280;2366;51.332;6.610;2023-01-27T01:08:15;102168.16;;;7.83;64.84
4705;BME280;2366;51.332;6.610;2023-01-27T01:10:40;102170.91;;;7.78;64.30
4705;BME280;2366;51.332;6.610;2023-01-27T01:13:06;102175.38;;;7.76;65.52
4705;BME280;2366;51.332;6.610;2023-01-27T01:15:35;102173.47;;;7.81;64.94
4705;BME280;2366;51.332;6.610;2023-01-27T01:18:02;102177.94;;;7.79;64.60
4705;BME280;2366;51.332;6.610;2023-01-27T01:20:28;102186.53;;;7.88;64.72
4705;BME280;2366;51.332;6.610;2023-01-27T01:22:53;102190.72;;;7.95;64.57
4705;BME280;2366;51.332;6.610;2023-01-27T01:25:18;102193.53;;;7.89;64.20
4705;BME280;2366;51.332;6.610;2023-01-27T01:27:44;102184.75;;;7.88;64.07
4705;BME280;2366;51.332;6.610;2023-01-27T01:30:10;102187.69;;;7.76;64.71
4705;BME280;2366;51.332;6.610;2023-01-27T01:32:36;102194.06;;;7.69;64.73
4705;BME280;2366;51.332;6.610;2023-01-27T01:35:01;102192.81;;;7.82;64.25
4705;BME280;2366;51.332;6.610;2023-01-27T01:37:27;102191.13;;;7.79;64.32
4705;BME280;2366;51.332;6.610;2023-01-27T01:39:52;102203.38;;;7.82;62.96
4705;BME280;2366;51.332;6.610;2023-01-27T01:42:17;102198.97;;;7.82;63.97
4705;BME280;2366;51.332;6.610;2023-01-27T01:44:43;102194.50;;;7.85;63.83
4705;BME280;2366;51.332;6.610;2023-01-27T01:47:16;102194.19;;;7.97;63.46
4705;BME280;2366;51.332;6.610;2023-01-27T01:49:43;102203.09;;;7.93;63.46
4705;BME280;2366;51.332;6.610;2023-01-27T01:52:17;102204.78;;;7.95;62.71
4705;BME280;2366;51.332;6.610;2023-01-27T01:54:48;102205.69;;;7.96;63.91
4705;BME280;2366;51.332;6.610;2023-01-27T01:57:20;102219.66;;;7.99;63.37
4705;BME280;2366;51.332;6.610;2023-01-27T01:59:54;102207.31;;;8.00;63.78
4705;BME280;2366;51.332;6.610;2023-01-27T02:02:22;102210.03;;;7.97;62.57
4705;BME280;2366;51.332;6.610;2023-01-27T02:04:54;102209.94;;;8.00;63.81
4705;BME280;2366;51.332;6.610;2023-01-27T02:07:32;102208.47;;;7.90;64.13
4705;BME280;2366;51.332;6.610;2023-01-27T02:09:59;102217.38;;;7.86;63.77
4705;BME280;2366;51.332;6.610;2023-01-27T02:12:25;102214.81;;;7.82;63.96
4705;BME280;2366;51.332;6.610;2023-01-27T02:14:51;102210.47;;;7.80;64.11
4705;BME280;2366;51.332;6.610;2023-01-27T02:17:16;102218.38;;;7.81;63.94
4705;BME280;2366;51.332;6.610;2023-01-27T02:22:25;102208.00;;;7.74;63.87
4705;BME280;2366;51.332;6.610;2023-01-27T02:25:00;102213.41;;;7.69;64.53
4705;BME280;2366;51.332;6.610;2023-01-27T02:27:28;102212.44;;;7.72;65.16
4705;BME280;2366;51.332;6.610;2023-01-27T02:29:54;102217.56;;;7.78;64.47
4705;BME280;2366;51.332;6.610;2023-01-27T02:32:24;102221.00;;;7.81;64.90
4705;BME280;2366;51.332;6.610;2023-01-27T02:34:49;102207.16;;;7.72;64.48
4705;BME280;2366;51.332;6.610;2023-01-27T02:37:17;102218.56;;;7.74;64.96
4705;BME280;2366;51.332;6.610;2023-01-27T02:39:43;102218.78;;;7.65;64.76
4705;BME280;2366;51.332;6.610;2023-01-27T02:42:13;102228.47;;;7.66;64.55
4705;BME280;2366;51.332;6.610;2023-01-27T02:44:38;102240.75;;;7.67;64.77
4705;BME280;2366;51.332;6.610;2023-01-27T02:47:04;102233.56;;;7.72;64.35
4705;BME280;2366;51.332;6.610;2023-01-27T02:49:31;102229.19;;;7.72;64.65
4705;BME280;2366;51.332;6.610;2023-01-27T02:51:56;102218.81;;;7.63;64.12
4705;BME280;2366;51.332;6.610;2023-01-27T02:54:23;102230.44;;;7.57;64.36
4705;BME280;2366;51.332;6.610;2023-01-27T02:56:50;102233.25;;;7.50;64.48
4705;BME280;2366;51.332;6.610;2023-01-27T02:59:16;102237.66;;;7.49;64.36
4705;BME280;2366;51.332;6.610;2023-01-27T03:01:41;102238.47;;;7.53;63.80
4705;BME280;2366;51.332;6.610;2023-01-27T03:04:07;102244.34;;;7.64;64.64
4705;BME280;2366;51.332;6.610;2023-01-27T03:06:33;102263.97;;;7.52;64.63
4705;BME280;2366;51.332;6.610;2023-01-27T03:08:58;102260.00;;;7.34;65.28
4705;BME280;2366;51.332;6.610;2023-01-27T03:11:24;102255.81;;;7.26;66.69
4705;BME280;2366;51.332;6.610;2023-01-27T03:14:08;102255.88;;;7.23;66.70
4705;BME280;2366;51.332;6.610;2023-01-27T03:16:33;102257.09;;;7.08;67.35
4705;BME280;2366;51.332;6.610;2023-01-27T03:19:18;102256.28;;;7.04;67.08
4705;BME280;2366;51.332;6.610;2023-01-27T03:21:43;102257.94;;;7.10;67.30
4705;BME280;2366;51.332;6.610;2023-01-27T03:24:09;102258.91;;;7.06;66.77
4705;BME280;2366;51.332;6.610;2023-01-27T03:26:34;102258.97;;;7.03;67.07
4705;BME280;2366;51.332;6.610;2023-01-27T03:29:03;102261.53;;;7.06;66.17
4705;BME280;2366;51.332;6.610;2023-01-27T03:31:46;102264.38;;;6.96;66.05
4705;BME280;2366;51.332;6.610;2023-01-27T03:34:12;102262.41;;;7.06;65.98
4705;BME280;2366;51.332;6.610;2023-01-27T03:36:37;102260.69;;;7.05;66.22
4705;BME280;2366;51.332;6.610;2023-01-27T03:39:21;102250.03;;;7.08;64.91
4705;BME280;2366;51.332;6.610;2023-01-27T03:42:05;102256.34;;;7.03;66.12
4705;BME280;2366;51.332;6.610;2023-01-27T03:44:49;102258.06;;;7.04;64.88
4705;BME280;2366;51.332;6.610;2023-01-27T03:47:33;102268.63;;;7.02;65.92
4705;BME280;2366;51.332;6.610;2023-01-27T03:49:58;102267.66;;;7.08;66.31
4705;BME280;2366;51.332;6.610;2023-01-27T03:52:24;102272.16;;;7.03;66.26
4705;BME280;2366;51.332;6.610;2023-01-27T03:54:49;102262.59;;;6.98;66.24
4705;BME280;2366;51.332;6.610;2023-01-27T03:57:14;102272.22;;;6.99;66.95
4705;BME280;2366;51.332;6.610;2023-01-27T03:59:40;102271.91;;;7.13;66.65
4705;BME280;2366;51.332;6.610;2023-01-27T04:02:05;102277.22;;;7.12;66.59
4705;BME280;2366;51.332;6.610;2023-01-27T04:04:49;102273.31;;;6.89;66.19
4705;BME280;2366;51.332;6.610;2023-01-27T04:07:34;102280.13;;;6.99;67.13
4705;BME280;2366;51.332;6.610;2023-01-27T04:09:59;102280.22;;;6.96;66.60
4705;BME280;2366;51.332;6.610;2023-01-27T04:12:25;102279.13;;;7.05;67.26
4705;BME280;2366;51.332;6.610;2023-01-27T04:14:50;102280.03;;;7.04;67.44
4705;BME280;2366;51.332;6.610;2023-01-27T04:17:17;102285.72;;;6.84;67.75
4705;BME280;2366;51.332;6.610;2023-01-27T04:19:44;102281.09;;;6.95;68.07
4705;BME280;2366;51.332;6.610;2023-01-27T04:22:10;102282.88;;;6.93;68.26
4705;BME280;2366;51.332;6.610;2023-01-27T04:24:39;102277.66;;;6.92;68.25
4705;BME280;2366;51.332;6.610;2023-01-27T04:27:08;102285.63;;;6.89;68.30
4705;BME280;2366;51.332;6.610;2023-01-27T04:29:35;102284.81;;;6.85;69.48
4705;BME280;2366;51.332;6.610;2023-01-27T04:32:03;102293.63;;;6.86;69.63
4705;BME280;2366;51.332;6.610;2023-01-27T04:34:30;102303.34;;;6.82;69.84
4705;BME280;2366;51.332;6.610;2023-01-27T04:36:57;102297.34;;;6.75;70.22
4705;BME280;2366;51.332;6.610;2023-01-27T04:39:22;102292.03;;;6.77;69.91
4705;BME280;2366;51.332;6.610;2023-01-27T04:41:48;102297.41;;;6.72;70.28
4705;BME280;2366;51.332;6.610;2023-01-27T04:44:14;102287.75;;;6.71;70.49
4705;BME280;2366;51.332;6.610;2023-01-27T04:46:40;102285.97;;;6.72;70.67
4705;BME280;2366;51.332;6.610;2023-01-27T04:49:06;102291.50;;;6.60;71.20
4705;BME280;2366;51.332;6.610;2023-01-27T04:51:32;102289.72;;;6.62;71.53
4705;BME280;2366;51.332;6.610;2023-01-27T04:53:58;102300.22;;;6.63;72.57
4705;BME280;2366;51.332;6.610;2023-01-27T04:56:29;102298.47;;;6.62;72.29
4705;BME280;2366;51.332;6.610;2023-01-27T04:59:04;102295.94;;;6.57;73.15
4705;BME280;2366;51.332;6.610;2023-01-27T05:01:30;102293.19;;;6.64;72.87
4705;BME280;2366;51.332;6.610;2023-01-27T05:03:55;102304.06;;;6.45;73.19
4705;BME280;2366;51.332;6.610;2023-01-27T05:06:22;102291.81;;;6.44;73.01
4705;BME280;2366;51.332;6.610;2023-01-27T05:08:47;102288.25;;;6.47;72.92
4705;BME280;2366;51.332;6.610;2023-01-27T05:11:13;102291.84;;;6.41;73.01
4705;BME280;2366;51.332;6.610;2023-01-27T05:13:39;102294.56;;;6.38;73.62
4705;BME280;2366;51.332;6.610;2023-01-27T05:16:11;102289.09;;;6.49;73.32
4705;BME280;2366;51.332;6.610;2023-01-27T05:18:37;102292.78;;;6.38;72.88
4705;BME280;2366;51.332;6.610;2023-01-27T05:21:03;102296.16;;;6.45;73.29
4705;BME280;2366;51.332;6.610;2023-01-27T05:23:29;102298.69;;;6.51;73.23
4705;BME280;2366;51.332;6.610;2023-01-27T05:26:03;102299.44;;;6.58;73.22
4705;BME280;2366;51.332;6.610;2023-01-27T05:28:28;102299.22;;;6.69;72.90
4705;BME280;2366;51.332;6.610;2023-01-27T05:31:02;102302.81;;;6.65;72.83
4705;BME280;2366;51.332;6.610;2023-01-27T05:33:28;102296.59;;;6.69;72.34
4705;BME280;2366;51.332;6.610;2023-01-27T05:35:57;102301.97;;;6.64;72.78
4705;BME280;2366;51.332;6.610;2023-01-27T05:38:23;102305.34;;;6.71;72.78
4705;BME280;2366;51.332;6.610;2023-01-27T05:40:48;102305.34;;;6.71;72.37
4705;BME280;2366;51.332;6.610;2023-01-27T05:43:13;102310.00;;;6.56;72.42
4705;BME280;2366;51.332;6.610;2023-01-27T05:45:39;102316.19;;;6.55;72.75
4705;BME280;2366;51.332;6.610;2023-01-27T05:48:04;102313.56;;;6.55;73.10
4705;BME280;2366;51.332;6.610;2023-01-27T05:50:29;102318.63;;;6.66;72.91
4705;BME280;2366;51.332;6.610;2023-01-27T05:52:55;102317.88;;;6.60;72.31
4705;BME280;2366;51.332;6.610;2023-01-27T05:55:20;102316.00;;;6.65;72.79
4705;BME280;2366;51.332;6.610;2023-01-27T05:57:45;102319.38;;;6.71;72.49
4705;BME280;2366;51.332;6.610;2023-01-27T06:00:11;102318.56;;;6.68;73.12
4705;BME280;2366;51.332;6.610;2023-01-27T06:02:36;102314.28;;;6.64;72.92
4705;BME280;2366;51.332;6.610;2023-01-27T06:05:02;102321.19;;;6.68;72.35
4705;BME280;2366;51.332;6.610;2023-01-27T06:07:27;102316.13;;;6.57;72.89
4705;BME280;2366;51.332;6.610;2023-01-27T06:09:52;102323.09;;;6.61;72.87
4705;BME280;2366;51.332;6.610;2023-01-27T06:12:18;102317.97;;;6.53;72.41
4705;BME280;2366;51.332;6.610;2023-01-27T06:14:43;102318.56;;;6.68;72.86
4705;BME280;2366;51.332;6.610;2023-01-27T06:17:08;102315.78;;;6.77;72.43
4705;BME280;2366;51.332;6.610;2023-01-27T06:19:34;102302.59;;;6.75;70.99
4705;BME280;2366;51.332;6.610;2023-01-27T06:21:59;102305.03;;;6.85;72.45
4705;BME280;2366;51.332;6.610;2023-01-27T06:24:24;102309.31;;;6.92;72.45
4705;BME280;2366;51.332;6.610;2023-01-27T06:26:50;102317.19;;;6.93;71.55
4705;BME280;2366;51.332;6.610;2023-01-27T06:29:15;102315.34;;;6.97;71.53
4705;BME280;2366;51.332;6.610;2023-01-27T06:31:40;102318.94;;;6.94;71.36
4705;BME280;2366;51.332;6.610;2023-01-27T06:34:05;102330.13;;;7.06;71.32
4705;BME280;2366;51.332;6.610;2023-01-27T06:36:31;102332.94;;;6.96;71.32
4705;BME280;2366;51.332;6.610;2023-01-27T06:38:56;102334.56;;;7.04;70.86
4705;BME280;2366;51.332;6.610;2023-01-27T06:41:21;102352.41;;;6.89;70.91
4705;BME280;2366;51.332;6.610;2023-01-27T06:43:47;102344.66;;;6.83;71.23
4705;BME280;2366;51.332;6.610;2023-01-27T06:46:12;102350.41;;;7.02;70.96
4705;BME280;2366;51.332;6.610;2023-01-27T06:48:39;102353.97;;;6.99;71.03
4705;BME280;2366;51.332;6.610;2023-01-27T06:51:04;102350.50;;;6.97;71.41
4705;BME280;2366;51.332;6.610;2023-01-27T06:53:30;102360.84;;;7.07;70.88
4705;BME280;2366;51.332;6.610;2023-01-27T06:55:58;102354.63;;;7.11;70.28
4705;BME280;2366;51.332;6.610;2023-01-27T06:58:24;102352.81;;;7.13;70.49
4705;BME280;2366;51.332;6.610;2023-01-27T07:00:50;102358.16;;;7.10;70.03
4705;BME280;2366;51.332;6.610;2023-01-27T07:03:16;102357.22;;;7.14;70.27
4705;BME280;2366;51.332;6.610;2023-01-27T07:05:41;102358.94;;;7.15;70.29
4705;BME280;2366;51.332;6.610;2023-01-27T07:08:07;102359.88;;;7.12;70.18
4705;BME280;2366;51.332;6.610;2023-01-27T07:10:32;102343.19;;;7.12;69.92
4705;BME280;2366;51.332;6.610;2023-01-27T07:13:09;102356.38;;;7.10;69.84
4705;BME280;2366;51.332;6.610;2023-01-27T07:15:35;102360.81;;;7.10;70.17
4705;BME280;2366;51.332;6.610;2023-01-27T07:18:02;102364.16;;;7.18;70.13
4705;BME280;2366;51.332;6.610;2023-01-27T07:20:28;102358.59;;;7.30;69.34
4705;BME280;2366;51.332;6.610;2023-01-27T07:22:57;102375.28;;;7.32;69.49
4705;BME280;2366;51.332;6.610;2023-01-27T07:25:23;102361.94;;;7.38;68.87
4705;BME280;2366;51.332;6.610;2023-01-27T07:27:48;102374.91;;;7.49;68.64
4705;BME280;2366;51.332;6.610;2023-01-27T07:30:14;102378.50;;;7.45;67.87
4705;BME280;2366;51.332;6.610;2023-01-27T07:32:39;102371.53;;;7.43;68.28
4705;BME280;2366;51.332;6.610;2023-01-27T07:35:05;102374.94;;;7.48;67.40
4705;BME280;2366;51.332;6.610;2023-01-27T07:37:30;102381.00;;;7.53;67.72
4705;BME280;2366;51.332;6.610;2023-01-27T07:39:56;102372.94;;;7.59;67.19
4705;BME280;2366;51.332;6.610;2023-01-27T07:42:21;102382.66;;;7.57;67.10
4705;BME280;2366;51.332;6.610;2023-01-27T07:44:46;102381.78;;;7.56;67.68
4705;BME280;2366;51.332;6.610;2023-01-27T07:47:11;102381.88;;;7.53;68.04
4705;BME280;2366;51.332;6.610;2023-01-27T07:49:37;102382.81;;;7.51;68.33
4705;BME280;2366;51.332;6.610;2023-01-27T07:52:02;102383.63;;;7.53;68.37
4705;BME280;2366;51.332;6.610;2023-01-27T07:54:28;102383.66;;;7.51;68.06
4705;BME280;2366;51.332;6.610;2023-01-27T07:56:53;102393.38;;;7.51;68.30
4705;BME280;2366;51.332;6.610;2023-01-27T07:59:18;102397.00;;;7.45;69.24
4705;BME280;2366;51.332;6.610;2023-01-27T08:01:44;102393.75;;;7.32;69.41
4705;BME280;2366;51.332;6.610;2023-01-27T08:04:09;102394.34;;;7.45;69.54
4705;BME280;2366;51.332;6.610;2023-01-27T08:06:37;102398.56;;;7.54;68.70
4705;BME280;2366;51.332;6.610;2023-01-27T08:09:03;102403.97;;;7.48;68.22
4705;BME280;2366;51.332;6.610;2023-01-27T08:11:28;102400.22;;;7.58;68.80
4705;BME280;2366;51.332;6.610;2023-01-27T08:13:53;102406.38;;;7.58;68.94
4705;BME280;2366;51.332;6.610;2023-01-27T08:16:19;102413.63;;;7.49;68.72
4705;BME280;2366;51.332;6.610;2023-01-27T08:18:44;102407.28;;;7.59;68.58
4705;BME280;2366;51.332;6.610;2023-01-27T08:21:10;102403.78;;;7.57;68.80
4705;BME280;2366;51.332;6.610;2023-01-27T08:23:36;102413.22;;;7.67;68.20
4705;BME280;2366;51.332;6.610;2023-01-27T08:26:03;102405.38;;;7.64;68.73
4705;BME280;2366;51.332;6.610;2023-01-27T08:28:30;102404.34;;;7.70;68.37
4705;BME280;2366;51.332;6.610;2023-01-27T08:31:22;102400.91;;;7.68;68.15
4705;BME280;2366;51.332;6.610;2023-01-27T08:33:52;102399.88;;;7.73;68.25
4705;BME280;2366;51.332;6.610;2023-01-27T08:36:19;102397.94;;;7.81;67.71
4705;BME280;2366;51.332;6.610;2023-01-27T08:38:45;102398.09;;;7.75;67.89
4705;BME280;2366;51.332;6.610;2023-01-27T08:41:12;102403.84;;;7.54;68.30
4705;BME280;2366;51.332;6.610;2023-01-27T08:43:38;102408.84;;;7.66;68.09
4705;BME280;2366;51.332;6.610;2023-01-27T08:46:04;102405.13;;;7.76;68.39
4705;BME280;2366;51.332;6.610;2023-01-27T08:48:31;102403.09;;;7.88;67.66
4705;BME280;2366;51.332;6.610;2023-01-27T08:50:58;102403.16;;;7.85;67.69
4705;BME280;2366;51.332;6.610;2023-01-27T08:53:24;102408.50;;;7.81;67.35
4705;BME280;2366;51.332;6.610;2023-01-27T08:55:50;102413.69;;;7.86;66.95
4705;BME280;2366;51.332;6.610;2023-01-27T08:58:16;102410.31;;;7.79;67.56
4705;BME280;2366;51.332;6.610;2023-01-27T09:00:41;102413.94;;;7.75;66.69
4705;BME280;2366;51.332;6.610;2023-01-27T09:03:07;102414.78;;;7.76;67.39
4705;BME280;2366;51.332;6.610;2023-01-27T09:05:34;102411.50;;;7.66;68.17
4705;BME280;2366;51.332;6.610;2023-01-27T09:08:00;102414.06;;;7.69;67.84
4705;BME280;2366;51.332;6.610;2023-01-27T09:10:25;102414.06;;;7.69;68.03
4705;BME280;2366;51.332;6.610;2023-01-27T09:12:50;102424.97;;;7.93;67.66
4705;BME280;2366;51.332;6.610;2023-01-27T09:15:16;102422.16;;;8.00;67.63
4705;BME280;2366;51.332;6.610;2023-01-27T09:17:41;102429.19;;;8.00;67.76
4705;BME280;2366;51.332;6.610;2023-01-27T09:20:07;102428.19;;;8.06;67.47
4705;BME280;2366;51.332;6.610;2023-01-27T09:22:33;102433.63;;;7.99;67.32
4705;BME280;2366;51.332;6.610;2023-01-27T09:25:01;102435.66;;;7.88;67.47
4705;BME280;2366;51.332;6.610;2023-01-27T09:27:26;102429.97;;;7.68;67.31
4705;BME280;2366;51.332;6.610;2023-01-27T09:29:51;102439.38;;;7.78;68.17
4705;BME280;2366;51.332;6.610;2023-01-27T09:32:17;102435.97;;;8.13;67.77
4705;BME280;2366;51.332;6.610;2023-01-27T09:34:42;102449.69;;;8.28;66.46
4705;BME280;2366;51.332;6.610;2023-01-27T09:37:09;102441.41;;;8.43;66.07
4705;BME280;2366;51.332;6.610;2023-01-27T09:39:42;102444.78;;;8.12;66.65
4705;BME280;2366;51.332;6.610;2023-01-27T09:42:36;102446.53;;;8.13;65.50
4705;BME280;2366;51.332;6.610;2023-01-27T09:50:44;102458.69;;;8.20;66.40
4705;BME280;2366;51.332;6.610;2023-01-27T09:56:00;102466.25;;;8.34;66.57
4705;BME280;2366;51.332;6.610;2023-01-27T10:01:25;102453.41;;;8.19;65.80
4705;BME280;2366;51.332;6.610;2023-01-27T10:04:31;102454.91;;;8.31;66.46
4705;BME280;2366;51.332;6.610;2023-01-27T10:07:56;102464.13;;;8.13;66.90
4705;BME280;2366;51.332;6.610;2023-01-27T10:13:26;102442.81;;;8.56;65.46
4705;BME280;2366;51.332;6.610;2023-01-27T10:18:50;102452.66;;;8.51;66.10
4705;BME280;2366;51.332;6.610;2023-01-27T10:26:35;102454.41;;;8.52;65.91
4705;BME280;2366;51.332;6.610;2023-01-27T10:29:23;102445.66;;;8.50;66.56
4705;BME280;2366;51.332;6.610;2023-01-27T10:32:00;102455.06;;;8.60;65.44
4705;BME280;2366;51.332;6.610;2023-01-27T10:34:35;102451.94;;;8.80;65.39
4705;BME280;2366;51.332;6.610;2023-01-27T10:42:37;102455.03;;;8.96;64.89
4705;BME280;2366;51.332;6.610;2023-01-27T10:47:48;102446.53;;;8.83;64.97
4705;BME280;2366;51.332;6.610;2023-01-27T10:50:19;102444.69;;;8.87;64.60
4705;BME280;2366;51.332;6.610;2023-01-27T10:55:24;102441.63;;;9.02;64.44
4705;BME280;2366;51.332;6.610;2023-01-27T10:57:58;102450.84;;;9.19;64.39
4705;BME280;2366;51.332;6.610;2023-01-27T11:00:31;102444.59;;;9.21;64.09
4705;BME280;2366;51.332;6.610;2023-01-27T11:05:50;102446.84;;;9.37;64.05
4705;BME280;2366;51.332;6.610;2023-01-27T11:08:19;102441.56;;;9.37;63.29
4705;BME280;2366;51.332;6.610;2023-01-27T11:10:48;102432.50;;;9.13;63.25
4705;BME280;2366;51.332;6.610;2023-01-27T11:13:34;102434.03;;;9.21;63.37
4705;BME280;2366;51.332;6.610;2023-01-27T11:16:00;102428.22;;;9.09;63.92
4705;BME280;2366;51.332;6.610;2023-01-27T11:18:28;102430.75;;;9.13;64.08
4705;BME280;2366;51.332;6.610;2023-01-27T11:21:03;102427.03;;;9.19;63.31
4705;BME280;2366;51.332;6.610;2023-01-27T11:23:32;102426.59;;;9.04;63.07
4705;BME280;2366;51.332;6.610;2023-01-27T11:26:16;102426.59;;;9.04;64.16
4705;BME280;2366;51.332;6.610;2023-01-27T11:29:09;102434.94;;;8.89;64.72
4705;BME280;2366;51.332;6.610;2023-01-27T11:35:04;102423.19;;;8.99;64.08
4705;BME280;2366;51.332;6.610;2023-01-27T11:37:41;102428.41;;;9.02;63.76
4705;BME280;2366;51.332;6.610;2023-01-27T11:40:29;102436.66;;;8.90;63.89
4705;BME280;2366;51.332;6.610;2023-01-27T11:42:56;102434.03;;;8.89;63.83
4705;BME280;2366;51.332;6.610;2023-01-27T11:45:23;102435.13;;;8.81;63.72
4705;BME280;2366;51.332;6.610;2023-01-27T11:47:54;102424.09;;;8.66;63.97
4705;BME280;2366;51.332;6.610;2023-01-27T11:50:21;102439.63;;;8.78;64.74
4705;BME280;2366;51.332;6.610;2023-01-27T11:52:53;102431.53;;;8.84;64.21
4705;BME280;2366;51.332;6.610;2023-01-27T11:55:27;102437.25;;;8.67;64.28
4705;BME280;2366;51.332;6.610;2023-01-27T12:00:37;102430.63;;;8.85;63.58
4705;BME280;2366;51.332;6.610;2023-01-27T12:03:26;102414.41;;;8.97;63.77
4705;BME280;2366;51.332;6.610;2023-01-27T12:05:54;102414.41;;;8.97;63.75
4705;BME280;2366;51.332;6.610;2023-01-27T12:08:41;102410.00;;;8.98;63.44
4705;BME280;2366;51.332;6.610;2023-01-27T12:11:21;102402.53;;;8.81;63.36
4705;BME280;2366;51.332;6.610;2023-01-27T12:13:49;102416.50;;;8.86;63.75
4705;BME280;2366;51.332;6.610;2023-01-27T12:16:14;102402.84;;;9.01;63.02
4705;BME280;2366;51.332;6.610;2023-01-27T12:18:51;102403.31;;;9.16;63.12
4705;BME280;2366;51.332;6.610;2023-01-27T12:21:18;102396.38;;;9.12;62.36
4705;BME280;2366;51.332;6.610;2023-01-27T12:23:53;102396.97;;;9.21;62.15
4705;BME280;2366;51.332;6.610;2023-01-27T12:26:33;102399.84;;;9.14;61.81
4705;BME280;2366;51.332;6.610;2023-01-27T12:29:06;102403.38;;;9.13;61.38
4705;BME280;2366;51.332;6.610;2023-01-27T12:31:44;102402.47;;;9.15;62.02
4705;BME280;2366;51.332;6.610;2023-01-27T12:34:21;102406.84;;;8.85;61.23
4705;BME280;2366;51.332;6.610;2023-01-27T12:36:49;102390.59;;;8.97;61.69
4705;BME280;2366;51.332;6.610;2023-01-27T12:39:43;102392.00;;;8.78;61.30
4705;BME280;2366;51.332;6.610;2023-01-27T12:44:57;102383.16;;;9.12;61.11
4705;BME280;2366;51.332;6.610;2023-01-27T12:47:27;102382.31;;;9.10;60.75
4705;BME280;2366;51.332;6.610;2023-01-27T12:50:22;102398.91;;;9.15;60.69
4705;BME280;2366;51.332;6.610;2023-01-27T12:52:53;102396.09;;;9.21;60.37
4705;BME280;2366;51.332;6.610;2023-01-27T12:55:49;102392.91;;;9.10;60.40
4705;BME280;2366;51.332;6.610;2023-01-27T12:58:43;102395.38;;;9.16;59.96
4705;BME280;2366;51.332;6.610;2023-01-27T13:06:32;102388.28;;;9.18;59.81
4705;BME280;2366;51.332;6.610;2023-01-27T13:08:59;102394.75;;;9.06;60.29
4705;BME280;2366;51.332;6.610;2023-01-27T13:11:32;102391.59;;;8.93;60.33
4705;BME280;2366;51.332;6.610;2023-01-27T13:13:58;102390.44;;;9.03;60.60
4705;BME280;2366;51.332;6.610;2023-01-27T13:16:28;102388.53;;;9.09;60.57
4705;BME280;2366;51.332;6.610;2023-01-27T13:18:57;102393.63;;;9.15;60.46
4705;BME280;2366;51.332;6.610;2023-01-27T13:21:35;102404.03;;;9.21;60.10
4705;BME280;2366;51.332;6.610;2023-01-27T13:24:11;102393.25;;;9.29;59.60
4705;BME280;2366;51.332;6.610;2023-01-27T13:26:39;102398.63;;;9.25;59.08
4705;BME280;2366;51.332;6.610;2023-01-27T13:31:56;102406.56;;;9.25;58.43
4705;BME280;2366;51.332;6.610;2023-01-27T13:34:27;102404.41;;;9.09;59.99
4705;BME280;2366;51.332;6.610;2023-01-27T13:37:22;102408.97;;;9.02;59.05
4705;BME280;2366;51.332;6.610;2023-01-27T13:40:21;102407.69;;;9.17;59.69
4705;BME280;2366;51.332;6.610;2023-01-27T13:42:54;102411.84;;;9.25;59.59
4705;BME280;2366;51.332;6.610;2023-01-27T13:45:22;102416.63;;;9.13;59.18
4705;BME280;2366;51.332;6.610;2023-01-27T13:47:57;102412.22;;;9.13;59.26
4705;BME280;2366;51.332;6.610;2023-01-27T13:50:30;102416.53;;;9.17;59.96
4705;BME280;2366;51.332;6.610;2023-01-27T13:52:58;102417.84;;;9.32;59.62
4705;BME280;2366;51.332;6.610;2023-01-27T13:58:52;102415.47;;;9.23;59.85
4705;BME280;2366;51.332;6.610;2023-01-27T14:07:02;102434.97;;;9.19;58.51
4705;BME280;2366;51.332;6.610;2023-01-27T14:17:25;102433.31;;;9.15;56.96
4705;BME280;2366;51.332;6.610;2023-01-27T14:28:12;102429.84;;;9.13;56.75
4705;BME280;2366;51.332;6.610;2023-01-27T14:30:41;102428.31;;;9.05;56.60
4705;BME280;2366;51.332;6.610;2023-01-27T14:35:53;102426.47;;;9.08;57.79
4705;BME280;2366;51.332;6.610;2023-01-27T14:38:30;102431.88;;;9.04;58.11
4705;BME280;2366;51.332;6.610;2023-01-27T14:41:30;102423.91;;;8.72;58.86
4705;BME280;2366;51.332;6.610;2023-01-27T14:47:07;102437.41;;;8.95;59.44
4705;BME280;2366;51.332;6.610;2023-01-27T14:50:03;102434.94;;;8.89;59.73
4705;BME280;2366;51.332;6.610;2023-01-27T15:00:55;102444.09;;;8.76;60.13
4705;BME280;2366;51.332;6.610;2023-01-27T15:07:09;102439.47;;;8.84;59.11
4705;BME280;2366;51.332;6.610;2023-01-27T15:15:28;102455.34;;;8.50;60.47
4705;BME280;2366;51.332;6.610;2023-01-27T15:18:26;102458.97;;;8.46;60.41
4705;BME280;2366;51.332;6.610;2023-01-27T15:23:53;102464.06;;;8.53;59.72